createdAt,value
2018-05-03T00:00:05.853Z,14.31
2018-05-03T00:01:07.063Z,14.31
2018-05-03T00:02:05.928Z,14.25
2018-05-03T00:03:05.894Z,14.19
2018-05-03T00:04:11.618Z,14.12
2018-05-03T00:05:06.249Z,14.19
2018-05-03T00:06:07.311Z,14.19
2018-05-03T00:07:06.596Z,14.12
2018-05-03T00:08:06.292Z,14.12
2018-05-03T00:09:06.302Z,14.06
2018-05-03T00:10:06.353Z,14.19
2018-05-03T00:11:06.236Z,14.25
2018-05-03T00:12:05.936Z,14.31
2018-05-03T00:13:05.718Z,14.25
2018-05-03T00:14:10.729Z,14.25
2018-05-03T00:15:06.418Z,14.31
2018-05-03T00:16:06.283Z,14.25
2018-05-03T00:17:06.069Z,14.25
2018-05-03T00:18:05.620Z,14.31
2018-05-03T00:19:05.773Z,14.31
2018-05-03T00:20:05.934Z,14.25
2018-05-03T00:21:05.615Z,14.31
2018-05-03T00:22:06.574Z,14.25
2018-05-03T00:23:05.875Z,14.19
2018-05-03T00:24:07.158Z,14.25
2018-05-03T00:25:05.941Z,14.25
2018-05-03T00:26:05.645Z,14.25
2018-05-03T00:27:05.546Z,14.44
2018-05-03T00:28:05.451Z,14.44
2018-05-03T00:29:05.462Z,14.44
2018-05-03T00:30:05.867Z,14.44
2018-05-03T00:31:05.688Z,14.44
2018-05-03T00:32:05.995Z,14.44
2018-05-03T00:33:06.336Z,14.56
2018-05-03T00:34:06.387Z,14.50
2018-05-03T00:35:06.427Z,14.50
2018-05-03T00:36:06.409Z,14.50
2018-05-03T00:37:06.430Z,14.50
2018-05-03T00:38:05.534Z,14.44
2018-05-03T00:39:06.517Z,14.38
2018-05-03T00:40:05.782Z,14.31
2018-05-03T00:41:05.944Z,14.31
2018-05-03T00:42:06.640Z,14.25
2018-05-03T00:43:05.706Z,14.25
2018-05-03T00:44:06.167Z,14.31
2018-05-03T00:45:06.343Z,14.38
2018-05-03T00:46:06.151Z,14.25
2018-05-03T00:47:05.767Z,14.12
2018-05-03T00:48:05.934Z,14.19
2018-05-03T00:49:06.106Z,14.12
2018-05-03T00:50:06.203Z,14.12
2018-05-03T00:51:05.782Z,14.06
2018-05-03T00:52:05.664Z,13.94
2018-05-03T00:53:06.504Z,13.88
2018-05-03T00:54:05.447Z,13.88
2018-05-03T00:55:06.516Z,13.94
2018-05-03T00:56:06.231Z,13.88
2018-05-03T00:57:06.157Z,14.00
2018-05-03T00:58:05.854Z,13.94
2018-05-03T00:59:05.678Z,13.94
2018-05-03T01:00:07.219Z,13.88
2018-05-03T01:01:05.990Z,13.81
2018-05-03T01:02:11.114Z,13.81
2018-05-03T01:03:06.370Z,13.75
2018-05-03T01:04:05.624Z,13.62
2018-05-03T01:05:06.445Z,13.50
2018-05-03T01:06:06.997Z,13.38
2018-05-03T01:07:06.246Z,13.19
2018-05-03T01:08:05.859Z,13.19
2018-05-03T01:09:05.795Z,13.25
2018-05-03T01:10:06.099Z,13.25
2018-05-03T01:11:06.433Z,13.44
2018-05-03T01:12:06.312Z,13.56
2018-05-03T01:13:05.770Z,13.69
2018-05-03T01:14:05.740Z,13.69
2018-05-03T01:15:05.929Z,13.75
2018-05-03T01:16:11.458Z,13.81
2018-05-03T01:17:05.939Z,13.81
2018-05-03T01:18:05.616Z,13.75
2018-05-03T01:19:06.342Z,13.75
2018-05-03T01:20:05.697Z,13.75
2018-05-03T01:21:06.177Z,13.75
2018-05-03T01:22:06.253Z,13.81
2018-05-03T01:23:07.226Z,13.81
2018-05-03T01:24:06.469Z,13.81
2018-05-03T01:25:06.021Z,13.88
2018-05-03T01:26:11.523Z,13.88
2018-05-03T01:27:06.092Z,13.88
2018-05-03T01:28:06.054Z,13.88
2018-05-03T01:29:05.943Z,14.00
2018-05-03T01:30:06.033Z,14.00
2018-05-03T01:31:11.056Z,14.00
2018-05-03T01:32:05.555Z,13.94
2018-05-03T01:33:05.847Z,13.94
2018-05-03T01:34:06.159Z,13.94
2018-05-03T01:35:05.703Z,14.00
2018-05-03T01:36:06.680Z,14.12
2018-05-03T01:37:05.779Z,14.25
2018-05-03T01:38:06.408Z,14.19
2018-05-03T01:39:06.500Z,14.12
2018-05-03T01:40:06.184Z,14.12
2018-05-03T01:41:06.264Z,14.00
2018-05-03T01:42:11.276Z,13.94
2018-05-03T01:43:05.886Z,13.94
2018-05-03T01:44:05.891Z,13.94
2018-05-03T01:45:06.095Z,14.06
2018-05-03T01:46:07.209Z,14.00
2018-05-03T01:47:05.925Z,14.00
2018-05-03T01:48:06.499Z,14.00
2018-05-03T01:49:05.545Z,14.06
2018-05-03T01:50:05.727Z,14.25
2018-05-03T01:51:05.857Z,14.38
2018-05-03T01:52:05.623Z,14.31
2018-05-03T01:53:05.548Z,14.25
2018-05-03T01:54:11.518Z,14.19
2018-05-03T01:55:06.299Z,14.06
2018-05-03T01:56:06.197Z,14.00
2018-05-03T01:57:05.864Z,14.00
2018-05-03T01:58:06.021Z,14.00
2018-05-03T01:59:06.342Z,14.00
2018-05-03T02:00:05.697Z,14.00
2018-05-03T02:01:05.797Z,13.94
2018-05-03T02:02:06.056Z,14.12
2018-05-03T02:03:06.605Z,14.06
2018-05-03T02:04:06.259Z,14.06
2018-05-03T02:05:05.692Z,14.00
2018-05-03T02:06:10.820Z,14.00
2018-05-03T02:07:06.140Z,14.00
2018-05-03T02:08:05.451Z,14.00
2018-05-03T02:09:06.368Z,14.00
2018-05-03T02:10:05.792Z,14.06
2018-05-03T02:11:05.853Z,14.00
2018-05-03T02:12:05.855Z,14.00
2018-05-03T02:13:06.995Z,13.94
2018-05-03T02:14:05.935Z,13.94
2018-05-03T02:15:06.603Z,13.88
2018-05-03T02:16:05.895Z,13.94
2018-05-03T02:17:05.694Z,13.81
2018-05-03T02:18:05.922Z,13.75
2018-05-03T02:19:05.867Z,13.75
2018-05-03T02:20:06.834Z,13.62
2018-05-03T02:21:05.962Z,13.56
2018-05-03T02:22:06.764Z,13.44
2018-05-03T02:23:10.681Z,13.56
2018-05-03T02:24:06.338Z,13.75
2018-05-03T02:25:06.181Z,13.88
2018-05-03T02:26:06.180Z,13.88
2018-05-03T02:27:05.624Z,13.88
2018-05-03T02:28:06.056Z,13.94
2018-05-03T02:29:05.851Z,13.88
2018-05-03T02:30:06.398Z,13.88
2018-05-03T02:31:06.192Z,13.88
2018-05-03T02:32:06.097Z,13.81
2018-05-03T02:33:06.011Z,13.88
2018-05-03T02:34:06.179Z,13.88
2018-05-03T02:35:06.420Z,13.94
2018-05-03T02:36:06.178Z,13.94
2018-05-03T02:37:06.020Z,13.94
2018-05-03T02:38:06.620Z,13.94
2018-05-03T02:39:06.058Z,13.94
2018-05-03T02:40:06.016Z,14.00
2018-05-03T02:41:06.174Z,14.06
2018-05-03T02:42:05.922Z,14.00
2018-05-03T02:43:06.177Z,14.00
2018-05-03T02:44:06.265Z,14.06
2018-05-03T02:45:05.843Z,14.00
2018-05-03T02:46:06.420Z,13.94
2018-05-03T02:47:06.566Z,13.94
2018-05-03T02:48:11.272Z,13.88
2018-05-03T02:49:05.887Z,13.81
2018-05-03T02:50:05.936Z,13.81
2018-05-03T02:51:10.732Z,13.88
2018-05-03T02:52:05.701Z,13.88
2018-05-03T02:53:05.449Z,13.88
2018-05-03T02:54:06.120Z,13.94
2018-05-03T02:55:06.628Z,14.06
2018-05-03T02:56:06.091Z,14.06
2018-05-03T02:57:05.772Z,14.06
2018-05-03T02:58:05.783Z,14.06
2018-05-03T02:59:05.779Z,14.00
2018-05-03T03:00:06.076Z,13.88
2018-05-03T03:01:06.130Z,13.75
2018-05-03T03:02:06.029Z,13.75
2018-05-03T03:03:05.624Z,13.81
2018-05-03T03:04:06.172Z,13.75
2018-05-03T03:05:06.339Z,13.81
2018-05-03T03:06:05.855Z,13.81
2018-05-03T03:07:06.503Z,13.69
2018-05-03T03:08:06.492Z,13.56
2018-05-03T03:09:06.489Z,13.50
2018-05-03T03:10:10.703Z,13.44
2018-05-03T03:11:07.088Z,13.38
2018-05-03T03:12:06.088Z,13.56
2018-05-03T03:13:05.878Z,13.62
2018-05-03T03:14:05.779Z,13.56
2018-05-03T03:15:05.693Z,13.50
2018-05-03T03:16:05.851Z,13.44
2018-05-03T03:17:06.504Z,13.50
2018-05-03T03:18:06.136Z,13.50
2018-05-03T03:19:06.336Z,13.50
2018-05-03T03:20:06.184Z,13.50
2018-05-03T03:21:06.172Z,13.50
2018-05-03T03:22:05.770Z,13.44
2018-05-03T03:23:06.271Z,13.38
2018-05-03T03:24:05.957Z,13.38
2018-05-03T03:25:05.928Z,13.44
2018-05-03T03:26:05.696Z,13.44
2018-05-03T03:27:10.564Z,13.44
2018-05-03T03:28:06.265Z,13.38
2018-05-03T03:29:06.112Z,13.38
2018-05-03T03:30:06.760Z,13.38
2018-05-03T03:31:06.373Z,13.50
2018-05-03T03:32:06.232Z,13.50
2018-05-03T03:33:06.192Z,13.44
2018-05-03T03:34:05.710Z,13.44
2018-05-03T03:35:06.103Z,13.44
2018-05-03T03:36:06.089Z,13.44
2018-05-03T03:37:05.786Z,13.62
2018-05-03T03:38:06.101Z,13.69
2018-05-03T03:39:06.114Z,13.88
2018-05-03T03:40:06.421Z,13.94
2018-05-03T03:41:06.121Z,14.00
2018-05-03T03:42:06.544Z,14.06
2018-05-03T03:43:06.119Z,14.12
2018-05-03T03:44:06.106Z,14.19
2018-05-03T03:45:06.028Z,14.19
2018-05-03T03:46:06.182Z,14.19
2018-05-03T03:47:05.856Z,14.19
2018-05-03T03:48:06.413Z,14.25
2018-05-03T03:49:05.774Z,14.31
2018-05-03T03:50:06.190Z,14.44
2018-05-03T03:51:11.192Z,14.31
2018-05-03T03:52:05.951Z,14.19
2018-05-03T03:53:10.864Z,14.25
2018-05-03T03:54:06.577Z,14.25
2018-05-03T03:55:06.107Z,14.19
2018-05-03T03:56:05.789Z,14.12
2018-05-03T03:57:06.496Z,14.19
2018-05-03T03:58:06.090Z,14.25
2018-05-03T03:59:06.291Z,14.12
2018-05-03T04:00:06.568Z,14.06
2018-05-03T04:01:07.319Z,14.19
2018-05-03T04:02:06.584Z,14.19
2018-05-03T04:03:05.842Z,14.06
2018-05-03T04:04:05.642Z,14.06
2018-05-03T04:05:06.181Z,14.12
2018-05-03T04:06:06.187Z,14.00
2018-05-03T04:07:05.543Z,13.88
2018-05-03T04:08:06.333Z,13.75
2018-05-03T04:09:06.915Z,13.69
2018-05-03T04:10:06.453Z,13.62
2018-05-03T04:11:05.892Z,13.56
2018-05-03T04:12:05.850Z,13.56
2018-05-03T04:13:06.189Z,13.50
2018-05-03T04:14:05.937Z,13.50
2018-05-03T04:15:06.118Z,13.44
2018-05-03T04:16:06.411Z,13.50
2018-05-03T04:17:05.848Z,13.56
2018-05-03T04:18:06.913Z,13.62
2018-05-03T04:19:06.342Z,13.75
2018-05-03T04:20:05.940Z,13.81
2018-05-03T04:21:05.865Z,13.81
2018-05-03T04:22:05.947Z,14.06
2018-05-03T04:23:05.937Z,14.06
2018-05-03T04:24:06.825Z,14.12
2018-05-03T04:25:07.251Z,14.12
2018-05-03T04:26:06.121Z,14.06
2018-05-03T04:27:11.123Z,14.06
2018-05-03T04:28:06.261Z,14.00
2018-05-03T04:29:06.151Z,14.00
2018-05-03T04:30:06.383Z,14.00
2018-05-03T04:31:05.720Z,14.12
2018-05-03T04:32:11.579Z,14.12
2018-05-03T04:33:06.184Z,14.12
2018-05-03T04:34:07.388Z,14.12
2018-05-03T04:35:06.765Z,14.12
2018-05-03T04:36:05.822Z,14.19
2018-05-03T04:37:06.485Z,14.19
2018-05-03T04:38:06.729Z,14.12
2018-05-03T04:39:06.412Z,14.19
2018-05-03T04:40:06.485Z,14.12
2018-05-03T04:41:05.925Z,14.00
2018-05-03T04:42:06.899Z,13.94
2018-05-03T04:43:10.796Z,14.00
2018-05-03T04:44:05.826Z,14.00
2018-05-03T04:45:06.403Z,14.00
2018-05-03T04:46:06.426Z,14.06
2018-05-03T04:47:11.327Z,14.06
2018-05-03T04:48:05.776Z,14.12
2018-05-03T04:49:06.009Z,14.06
2018-05-03T04:50:05.636Z,14.12
2018-05-03T04:51:06.602Z,14.12
2018-05-03T04:52:06.425Z,14.06
2018-05-03T04:53:05.522Z,14.06
2018-05-03T04:54:06.323Z,14.06
2018-05-03T04:55:06.595Z,14.06
2018-05-03T04:56:06.659Z,14.00
2018-05-03T04:57:06.670Z,14.00
2018-05-03T04:58:11.404Z,14.06
2018-05-03T04:59:06.584Z,14.06
2018-05-03T05:00:05.549Z,14.00
2018-05-03T05:01:06.617Z,14.06
2018-05-03T05:02:06.554Z,14.00
2018-05-03T05:03:10.969Z,14.00
2018-05-03T05:04:11.465Z,14.00
2018-05-03T05:05:11.169Z,14.00
2018-05-03T05:06:06.509Z,14.00
2018-05-03T05:07:11.450Z,14.12
2018-05-03T05:08:06.181Z,14.25
2018-05-03T05:09:06.020Z,14.25
2018-05-03T05:10:06.938Z,14.12
2018-05-03T05:11:06.178Z,14.06
2018-05-03T05:12:06.520Z,14.00
2018-05-03T05:13:06.481Z,14.00
2018-05-03T05:14:05.636Z,13.94
2018-05-03T05:15:05.717Z,13.94
2018-05-03T05:16:05.708Z,14.00
2018-05-03T05:17:12.515Z,13.94
2018-05-03T05:18:06.399Z,14.00
2018-05-03T05:19:06.562Z,14.00
2018-05-03T05:20:06.264Z,14.00
2018-05-03T05:21:06.179Z,14.06
2018-05-03T05:22:06.015Z,14.06
2018-05-03T05:23:06.460Z,14.12
2018-05-03T05:24:06.573Z,14.06
2018-05-03T05:25:06.728Z,14.06
2018-05-03T05:26:05.931Z,14.06
2018-05-03T05:27:05.724Z,14.06
2018-05-03T05:28:06.259Z,14.00
2018-05-03T05:29:06.104Z,14.06
2018-05-03T05:30:10.857Z,14.12
2018-05-03T05:31:06.084Z,14.19
2018-05-03T05:32:05.535Z,14.25
2018-05-03T05:33:09.536Z,14.31
2018-05-03T05:34:06.325Z,14.38
2018-05-03T05:35:05.879Z,14.44
2018-05-03T05:36:05.900Z,14.38
2018-05-03T05:37:06.412Z,14.38
2018-05-03T05:38:06.275Z,14.44
2018-05-03T05:39:06.100Z,14.56
2018-05-03T05:40:06.097Z,14.56
2018-05-03T05:41:06.619Z,14.62
2018-05-03T05:42:11.185Z,14.69
2018-05-03T05:43:06.171Z,14.75
2018-05-03T05:44:06.519Z,14.81
2018-05-03T05:45:06.420Z,14.94
2018-05-03T05:46:05.777Z,15.06
2018-05-03T05:47:06.095Z,15.19
2018-05-03T05:48:06.182Z,15.75
2018-05-03T05:49:05.867Z,16.44
2018-05-03T05:50:06.655Z,17.31
2018-05-03T05:51:05.799Z,17.62
2018-05-03T05:52:06.625Z,18.19
2018-05-03T05:53:06.240Z,18.62
2018-05-03T05:54:06.257Z,18.88
2018-05-03T05:55:06.186Z,19.19
2018-05-03T05:56:05.942Z,19.50
2018-05-03T05:57:06.249Z,19.75
2018-05-03T05:58:06.109Z,19.75
2018-05-03T05:59:11.038Z,19.88
2018-05-03T06:00:05.628Z,20.00
2018-05-03T06:01:05.792Z,19.94
2018-05-03T06:02:06.208Z,20.00
2018-05-03T06:03:06.317Z,19.94
2018-05-03T06:04:06.556Z,19.94
2018-05-03T06:05:05.951Z,19.88
2018-05-03T06:06:05.859Z,19.81
2018-05-03T06:07:06.033Z,19.81
2018-05-03T06:08:06.020Z,19.81
2018-05-03T06:09:06.096Z,19.69
2018-05-03T06:10:06.602Z,19.75
2018-05-03T06:11:05.851Z,19.75
2018-05-03T06:12:06.678Z,19.69
2018-05-03T06:13:05.655Z,19.62
2018-05-03T06:14:06.250Z,19.69
2018-05-03T06:15:06.144Z,19.56
2018-05-03T06:16:05.778Z,19.62
2018-05-03T06:17:06.125Z,19.69
2018-05-03T06:18:06.345Z,19.75
2018-05-03T06:19:06.340Z,19.75
2018-05-03T06:20:05.533Z,19.62
2018-05-03T06:21:05.786Z,19.50
2018-05-03T06:22:07.097Z,19.50
2018-05-03T06:23:05.970Z,19.44
2018-05-03T06:24:05.590Z,19.44
2018-05-03T06:25:06.495Z,19.44
2018-05-03T06:26:06.195Z,19.38
2018-05-03T06:27:06.093Z,19.31
2018-05-03T06:28:05.863Z,19.38
2018-05-03T06:29:11.293Z,19.38
2018-05-03T06:30:05.903Z,19.31
2018-05-03T06:31:06.595Z,19.31
2018-05-03T06:32:05.506Z,19.25
2018-05-03T06:33:05.792Z,19.31
2018-05-03T06:34:06.265Z,19.31
2018-05-03T06:35:06.308Z,19.38
2018-05-03T06:36:06.105Z,19.38
2018-05-03T06:37:06.438Z,19.38
2018-05-03T06:38:06.231Z,19.38
2018-05-03T06:39:05.802Z,19.38
2018-05-03T06:40:05.872Z,19.50
2018-05-03T06:41:05.995Z,19.56
2018-05-03T06:42:06.206Z,19.50
2018-05-03T06:43:06.265Z,19.62
2018-05-03T06:44:06.192Z,19.75
2018-05-03T06:45:06.502Z,19.88
2018-05-03T06:46:06.528Z,19.94
2018-05-03T06:47:06.262Z,20.12
2018-05-03T06:48:06.423Z,20.19
2018-05-03T06:49:06.649Z,20.31
2018-05-03T06:50:05.728Z,20.44
2018-05-03T06:51:06.657Z,20.56
2018-05-03T06:52:06.292Z,20.62
2018-05-03T06:53:06.218Z,20.69
2018-05-03T06:54:05.936Z,20.81
2018-05-03T06:55:05.667Z,20.88
2018-05-03T06:56:11.182Z,21.00
2018-05-03T06:57:11.293Z,21.06
2018-05-03T06:58:05.787Z,21.19
2018-05-03T06:59:06.096Z,21.31
2018-05-03T07:00:06.093Z,21.44
2018-05-03T07:01:05.590Z,21.50
2018-05-03T07:02:10.896Z,21.62
2018-05-03T07:03:06.219Z,21.75
2018-05-03T07:04:06.360Z,21.88
2018-05-03T07:05:06.484Z,22.00
2018-05-03T07:06:05.887Z,22.19
2018-05-03T07:07:06.061Z,22.31
2018-05-03T07:08:05.874Z,22.44
2018-05-03T07:09:05.775Z,22.56
2018-05-03T07:10:06.019Z,22.62
2018-05-03T07:11:06.175Z,22.69
2018-05-03T07:12:06.014Z,22.81
2018-05-03T07:13:05.953Z,22.88
2018-05-03T07:14:06.015Z,23.00
2018-05-03T07:15:06.552Z,23.06
2018-05-03T07:16:05.720Z,23.12
2018-05-03T07:17:05.595Z,23.19
2018-05-03T07:18:05.946Z,23.25
2018-05-03T07:19:10.743Z,23.31
2018-05-03T07:20:06.415Z,23.38
2018-05-03T07:21:06.203Z,23.44
2018-05-03T07:22:06.126Z,23.50
2018-05-03T07:23:06.245Z,23.56
2018-05-03T07:24:05.775Z,23.62
2018-05-03T07:25:05.638Z,23.69
2018-05-03T07:26:05.773Z,23.75
2018-05-03T07:27:06.124Z,23.88
2018-05-03T07:28:06.861Z,23.94
2018-05-03T07:29:06.259Z,24.00
2018-05-03T07:30:05.963Z,24.00
2018-05-03T07:31:05.623Z,24.12
2018-05-03T07:32:05.780Z,24.31
2018-05-03T07:33:05.723Z,24.38
2018-05-03T07:34:05.945Z,24.44
2018-05-03T07:35:06.433Z,24.44
2018-05-03T07:36:11.528Z,24.31
2018-05-03T07:37:06.836Z,24.06
2018-05-03T07:38:05.866Z,23.88
2018-05-03T07:39:06.359Z,23.69
2018-05-03T07:40:06.284Z,23.62
2018-05-03T07:41:06.191Z,23.69
2018-05-03T07:42:05.868Z,23.56
2018-05-03T07:43:06.340Z,23.56
2018-05-03T07:44:06.804Z,23.50
2018-05-03T07:45:06.579Z,23.44
2018-05-03T07:46:06.411Z,23.31
2018-05-03T07:47:05.870Z,23.25
2018-05-03T07:48:06.408Z,23.25
2018-05-03T07:49:06.100Z,23.19
2018-05-03T07:50:05.728Z,23.31
2018-05-03T07:51:06.482Z,23.25
2018-05-03T07:52:06.385Z,23.12
2018-05-03T07:53:05.561Z,23.31
2018-05-03T07:54:11.412Z,23.25
2018-05-03T07:55:06.187Z,23.19
2018-05-03T07:56:06.124Z,23.19
2018-05-03T07:57:06.291Z,23.31
2018-05-03T07:58:06.297Z,23.44
2018-05-03T07:59:05.632Z,23.44
2018-05-03T08:00:06.822Z,23.56
2018-05-03T08:01:06.441Z,23.44
2018-05-03T08:02:06.155Z,23.38
2018-05-03T08:03:05.811Z,23.38
2018-05-03T08:04:05.830Z,23.50
2018-05-03T08:05:05.744Z,23.62
2018-05-03T08:06:05.863Z,23.69
2018-05-03T08:07:10.916Z,23.56
2018-05-03T08:08:05.659Z,23.44
2018-05-03T08:09:05.782Z,23.38
2018-05-03T08:10:11.192Z,23.44
2018-05-03T08:11:06.269Z,23.44
2018-05-03T08:12:06.037Z,23.38
2018-05-03T08:13:06.921Z,23.25
2018-05-03T08:14:06.149Z,23.44
2018-05-03T08:15:05.794Z,23.25
2018-05-03T08:16:06.427Z,23.12
2018-05-03T08:17:06.190Z,23.31
2018-05-03T08:18:06.187Z,23.56
2018-05-03T08:19:06.181Z,23.56
2018-05-03T08:20:05.879Z,23.44
2018-05-03T08:21:06.510Z,23.31
2018-05-03T08:22:06.835Z,23.19
2018-05-03T08:23:05.782Z,23.25
2018-05-03T08:24:10.757Z,23.25
2018-05-03T08:25:06.526Z,23.31
2018-05-03T08:26:06.283Z,23.38
2018-05-03T08:27:06.349Z,23.25
2018-05-03T08:28:06.583Z,23.19
2018-05-03T08:29:06.354Z,23.19
2018-05-03T08:30:06.945Z,22.94
2018-05-03T08:31:05.864Z,23.06
2018-05-03T08:32:05.916Z,23.25
2018-05-03T08:33:06.195Z,23.56
2018-05-03T08:34:06.002Z,23.19
2018-05-03T08:35:10.889Z,22.75
2018-05-03T08:36:05.702Z,22.50
2018-05-03T08:37:06.611Z,22.44
2018-05-03T08:38:06.607Z,22.31
2018-05-03T08:39:05.913Z,22.38
2018-05-03T08:40:11.451Z,22.25
2018-05-03T08:41:05.815Z,22.12
2018-05-03T08:42:05.796Z,21.88
2018-05-03T08:43:06.854Z,21.62
2018-05-03T08:44:06.579Z,21.50
2018-05-03T08:45:06.445Z,21.38
2018-05-03T08:46:06.584Z,21.31
2018-05-03T08:47:06.014Z,21.19
2018-05-03T08:48:07.793Z,20.88
2018-05-03T08:49:06.449Z,20.75
2018-05-03T08:50:06.172Z,20.75
2018-05-03T08:51:07.053Z,20.75
2018-05-03T08:52:06.121Z,20.69
2018-05-03T08:53:06.011Z,20.62
2018-05-03T08:54:06.338Z,20.62
2018-05-03T08:55:06.043Z,20.56
2018-05-03T08:56:05.643Z,20.56
2018-05-03T08:57:05.943Z,20.75
2018-05-03T08:58:06.349Z,20.88
2018-05-03T08:59:06.888Z,21.00
2018-05-03T09:00:06.203Z,21.12
2018-05-03T09:01:05.949Z,21.25
2018-05-03T09:02:06.421Z,21.38
2018-05-03T09:03:06.034Z,21.38
2018-05-03T09:04:06.352Z,21.31
2018-05-03T09:05:05.658Z,21.12
2018-05-03T09:06:05.789Z,20.94
2018-05-03T09:07:16.353Z,20.62
2018-05-03T09:08:06.013Z,20.62
2018-05-03T09:09:10.566Z,20.50
2018-05-03T09:10:06.365Z,20.31
2018-05-03T09:11:05.944Z,20.19
2018-05-03T09:12:05.892Z,20.06
2018-05-03T09:13:06.499Z,20.06
2018-05-03T09:14:05.618Z,20.12
2018-05-03T09:15:06.748Z,20.19
2018-05-03T09:16:05.696Z,20.25
2018-05-03T09:17:06.682Z,20.31
2018-05-03T09:18:10.550Z,20.31
2018-05-03T09:19:06.264Z,20.25
2018-05-03T09:20:06.426Z,20.12
2018-05-03T09:21:05.694Z,20.19
2018-05-03T09:22:06.760Z,20.19
2018-05-03T09:23:05.714Z,20.12
2018-05-03T09:24:06.071Z,20.06
2018-05-03T09:25:05.800Z,20.06
2018-05-03T09:26:11.460Z,20.12
2018-05-03T09:27:05.872Z,20.06
2018-05-03T09:28:06.130Z,20.31
2018-05-03T09:29:06.107Z,20.38
2018-05-03T09:30:06.265Z,20.38
2018-05-03T09:31:06.520Z,20.56
2018-05-03T09:32:06.174Z,20.62
2018-05-03T09:33:06.187Z,20.62
2018-05-03T09:34:05.802Z,20.69
2018-05-03T09:35:05.796Z,20.81
2018-05-03T09:36:06.105Z,20.81
2018-05-03T09:37:06.426Z,20.88
2018-05-03T09:38:06.173Z,21.00
2018-05-03T09:39:06.241Z,21.06
2018-05-03T09:40:05.927Z,20.94
2018-05-03T09:41:06.628Z,21.06
2018-05-03T09:42:06.427Z,21.06
2018-05-03T09:43:06.476Z,21.06
2018-05-03T09:44:06.809Z,21.25
2018-05-03T09:45:06.169Z,21.38
2018-05-03T09:46:05.950Z,21.44
2018-05-03T09:47:06.339Z,21.44
2018-05-03T09:48:06.961Z,21.69
2018-05-03T09:49:06.456Z,21.56
2018-05-03T09:50:06.343Z,21.62
2018-05-03T09:51:06.482Z,21.44
2018-05-03T09:52:05.784Z,21.31
2018-05-03T09:53:06.500Z,21.62
2018-05-03T09:54:06.100Z,21.69
2018-05-03T09:55:06.561Z,21.50
2018-05-03T09:56:06.263Z,21.31
2018-05-03T09:57:06.433Z,20.94
2018-05-03T09:58:07.392Z,20.81
2018-05-03T09:59:05.618Z,20.81
2018-05-03T10:00:06.431Z,20.94
2018-05-03T10:01:06.034Z,21.06
2018-05-03T10:02:11.274Z,20.94
2018-05-03T10:03:05.873Z,20.88
2018-05-03T10:04:06.182Z,20.75
2018-05-03T10:05:05.990Z,20.69
2018-05-03T10:06:05.752Z,20.62
2018-05-03T10:07:06.726Z,20.69
2018-05-03T10:08:06.194Z,20.75
2018-05-03T10:09:05.597Z,20.94
2018-05-03T10:10:05.794Z,20.88
2018-05-03T10:11:05.873Z,21.00
2018-05-03T10:12:06.403Z,21.19
2018-05-03T10:13:06.113Z,21.19
2018-05-03T10:14:06.032Z,21.12
2018-05-03T10:15:07.054Z,21.56
2018-05-03T10:16:10.573Z,21.75
2018-05-03T10:17:06.520Z,21.62
2018-05-03T10:18:06.415Z,21.56
2018-05-03T10:19:05.704Z,21.06
2018-05-03T10:20:06.345Z,21.00
2018-05-03T10:21:05.703Z,21.00
2018-05-03T10:22:06.117Z,21.06
2018-05-03T10:23:06.075Z,20.81
2018-05-03T10:24:05.876Z,20.88
2018-05-03T10:25:10.779Z,20.94
2018-05-03T10:26:06.589Z,20.88
2018-05-03T10:27:06.209Z,20.75
2018-05-03T10:28:06.595Z,20.75
2018-05-03T10:29:06.330Z,20.69
2018-05-03T10:30:06.042Z,20.50
2018-05-03T10:31:06.512Z,20.81
2018-05-03T10:32:05.976Z,21.12
2018-05-03T10:33:06.582Z,21.38
2018-05-03T10:34:06.653Z,21.56
2018-05-03T10:35:06.595Z,21.69
2018-05-03T10:36:06.285Z,21.69
2018-05-03T10:37:06.376Z,21.44
2018-05-03T10:38:05.713Z,21.31
2018-05-03T10:39:06.199Z,21.56
2018-05-03T10:40:06.469Z,21.38
2018-05-03T10:41:06.196Z,21.25
2018-05-03T10:42:06.789Z,21.44
2018-05-03T10:43:05.976Z,21.31
2018-05-03T10:44:06.567Z,21.19
2018-05-03T10:45:06.685Z,21.06
2018-05-03T10:46:06.234Z,21.19
2018-05-03T10:47:05.880Z,21.31
2018-05-03T10:48:06.352Z,21.44
2018-05-03T10:49:11.504Z,21.31
2018-05-03T10:50:06.386Z,21.31
2018-05-03T10:51:06.166Z,21.19
2018-05-03T10:52:06.108Z,21.12
2018-05-03T10:53:05.488Z,21.31
2018-05-03T10:54:06.418Z,21.31
2018-05-03T10:55:05.485Z,21.56
2018-05-03T10:56:06.669Z,21.56
2018-05-03T10:57:06.414Z,21.31
2018-05-03T10:58:06.031Z,21.38
2018-05-03T10:59:06.602Z,21.62
2018-05-03T11:00:11.640Z,21.88
2018-05-03T11:01:06.756Z,21.81
2018-05-03T11:02:06.309Z,21.88
2018-05-03T11:03:06.243Z,21.81
2018-05-03T11:04:06.180Z,21.62
2018-05-03T11:05:05.711Z,21.50
2018-05-03T11:06:05.794Z,21.31
2018-05-03T11:07:07.306Z,21.31
2018-05-03T11:08:06.108Z,21.38
2018-05-03T11:09:06.047Z,21.31
2018-05-03T11:10:06.833Z,21.81
2018-05-03T11:11:10.801Z,21.69
2018-05-03T11:12:06.505Z,21.69
2018-05-03T11:13:06.336Z,21.81
2018-05-03T11:14:11.049Z,22.00
2018-05-03T11:15:05.698Z,22.06
2018-05-03T11:16:05.791Z,22.12
2018-05-03T11:17:05.873Z,22.06
2018-05-03T11:18:06.424Z,21.94
2018-05-03T11:19:05.700Z,21.62
2018-05-03T11:20:06.148Z,21.69
2018-05-03T11:21:06.025Z,21.88
2018-05-03T11:22:07.308Z,21.94
2018-05-03T11:23:06.496Z,22.19
2018-05-03T11:24:06.308Z,22.31
2018-05-03T11:25:06.460Z,22.31
2018-05-03T11:26:11.411Z,22.88
2018-05-03T11:27:07.179Z,22.88
2018-05-03T11:28:11.658Z,22.62
2018-05-03T11:29:06.348Z,22.69
2018-05-03T11:30:05.956Z,22.69
2018-05-03T11:31:06.084Z,22.81
2018-05-03T11:32:05.637Z,22.75
2018-05-03T11:33:05.779Z,23.00
2018-05-03T11:34:05.887Z,22.75
2018-05-03T11:35:05.888Z,22.94
2018-05-03T11:36:06.531Z,22.69
2018-05-03T11:37:06.183Z,22.25
2018-05-03T11:38:06.179Z,21.94
2018-05-03T11:39:06.158Z,21.88
2018-05-03T11:40:10.988Z,21.81
2018-05-03T11:41:05.885Z,21.75
2018-05-03T11:42:06.664Z,22.06
2018-05-03T11:43:06.355Z,22.12
2018-05-03T11:44:06.524Z,22.25
2018-05-03T11:45:05.776Z,22.19
2018-05-03T11:46:05.955Z,22.44
2018-05-03T11:47:11.663Z,22.12
2018-05-03T11:48:07.498Z,21.94
2018-05-03T11:49:06.396Z,21.94
2018-05-03T11:50:06.577Z,21.88
2018-05-03T11:51:06.259Z,22.12
2018-05-03T11:52:05.762Z,22.00
2018-05-03T11:53:06.739Z,22.00
2018-05-03T11:54:05.776Z,22.19
2018-05-03T11:55:06.795Z,21.94
2018-05-03T11:56:06.257Z,21.94
2018-05-03T11:57:10.777Z,22.00
2018-05-03T11:58:06.500Z,21.81
2018-05-03T11:59:06.437Z,21.75
2018-05-03T12:00:06.599Z,21.94
2018-05-03T12:01:05.548Z,22.06
2018-05-03T12:02:05.691Z,22.19
2018-05-03T12:03:06.512Z,22.31
2018-05-03T12:04:06.132Z,22.06
2018-05-03T12:05:06.879Z,22.00
2018-05-03T12:06:06.579Z,22.19
2018-05-03T12:07:06.382Z,22.38
2018-05-03T12:08:06.360Z,22.25
2018-05-03T12:09:06.189Z,22.25
2018-05-03T12:10:11.208Z,22.44
2018-05-03T12:11:06.577Z,22.44
2018-05-03T12:12:06.383Z,22.31
2018-05-03T12:13:06.325Z,22.69
2018-05-03T12:14:05.953Z,22.75
2018-05-03T12:15:06.411Z,22.75
2018-05-03T12:16:06.258Z,22.38
2018-05-03T12:17:06.341Z,22.44
2018-05-03T12:18:06.566Z,22.50
2018-05-03T12:19:06.296Z,22.50
2018-05-03T12:20:06.717Z,22.44
2018-05-03T12:21:05.949Z,22.38
2018-05-03T12:22:06.123Z,22.25
2018-05-03T12:23:06.025Z,22.12
2018-05-03T12:24:06.661Z,22.31
2018-05-03T12:25:06.186Z,22.38
2018-05-03T12:26:06.180Z,22.31
2018-05-03T12:27:06.503Z,22.00
2018-05-03T12:28:06.273Z,22.12
2018-05-03T12:29:05.939Z,22.06
2018-05-03T12:30:05.864Z,22.06
2018-05-03T12:31:06.598Z,22.19
2018-05-03T12:32:06.174Z,22.06
2018-05-03T12:33:06.067Z,22.31
2018-05-03T12:34:05.857Z,22.31
2018-05-03T12:35:06.201Z,22.12
2018-05-03T12:36:06.257Z,22.06
2018-05-03T12:37:11.113Z,22.25
2018-05-03T12:38:05.781Z,22.12
2018-05-03T12:39:06.414Z,22.25
2018-05-03T12:40:06.232Z,22.06
2018-05-03T12:41:07.316Z,22.00
2018-05-03T12:42:06.336Z,22.00
2018-05-03T12:43:06.355Z,22.12
2018-05-03T12:44:06.422Z,22.38
2018-05-03T12:45:06.459Z,22.56
2018-05-03T12:46:06.594Z,22.50
2018-05-03T12:47:06.416Z,22.62
2018-05-03T12:48:06.107Z,22.56
2018-05-03T12:49:05.816Z,22.62
2018-05-03T12:50:06.187Z,22.75
2018-05-03T12:51:06.188Z,22.81
2018-05-03T12:52:06.201Z,22.94